createdAt,value
2023-01-29T00:01:23.671Z,101737.66
2023-01-29T00:06:35.914Z,101733.41
2023-01-29T00:11:51.401Z,101736.72
2023-01-29T00:17:09.588Z,101727.16
2023-01-29T00:22:24.756Z,101715.16
2023-01-29T00:27:38.650Z,101707.47
2023-01-29T00:33:00.990Z,101699.78
2023-01-29T00:38:15.691Z,101691.25
2023-01-29T00:43:46.703Z,101702.22
2023-01-29T00:49:05.086Z,101703.88
2023-01-29T00:54:21.496Z,101688.41
2023-01-29T00:59:37.833Z,101679.09
2023-01-29T01:04:56.295Z,101672.19
2023-01-29T01:10:26.434Z,101650.91
2023-01-29T01:15:44.326Z,101657.75
2023-01-29T01:21:05.145Z,101641.50
2023-01-29T01:26:21.475Z,101642.38
2023-01-29T01:31:39.414Z,101645.81
2023-01-29T01:36:59.805Z,101650.91
2023-01-29T01:42:19.632Z,101648.25
2023-01-29T01:47:45.039Z,101655.09
2023-01-29T01:53:09.339Z,101650.81
2023-01-29T01:58:24.178Z,101671.34
2023-01-29T02:03:49.528Z,101666.28
2023-01-29T02:09:21.283Z,101665.50
2023-01-29T02:14:28.539Z,101655.16
2023-01-29T02:20:05.252Z,101645.69
2023-01-29T02:26:12.496Z,101631.16
2023-01-29T02:31:33.528Z,101628.47
2023-01-29T02:36:53.012Z,101621.75
2023-01-29T02:42:12.998Z,101611.47
2023-01-29T02:47:34.974Z,101613.25
2023-01-29T02:52:59.291Z,101613.19
2023-01-29T02:58:23.540Z,101604.53
2023-01-29T03:03:41.320Z,101602.06
2023-01-29T03:08:58.550Z,101608.94
2023-01-29T03:14:18.504Z,101620.03
2023-01-29T03:19:40.226Z,101611.47
2023-01-29T03:25:23.716Z,101596.19
2023-01-29T03:30:57.623Z,101599.63
2023-01-29T03:36:47.106Z,101599.50
2023-01-29T03:42:06.560Z,101594.38
2023-01-29T03:47:27.964Z,101597.84
2023-01-29T03:52:53.293Z,101595.28
2023-01-29T03:58:15.129Z,101579.13
2023-01-29T04:03:37.590Z,101560.31
2023-01-29T04:08:58.811Z,101556.84
2023-01-29T04:14:12.724Z,101557.78
2023-01-29T04:19:28.744Z,101552.63
2023-01-29T04:24:49.932Z,101547.50
2023-01-29T04:30:18.712Z,101545.91
2023-01-29T04:35:45.124Z,101555.22
2023-01-29T04:41:09.464Z,101567.16
2023-01-29T04:46:29.531Z,101547.53
2023-01-29T04:51:53.302Z,101535.66
2023-01-29T04:57:17.984Z,101539.72
2023-01-29T05:02:34.740Z,101538.09
2023-01-29T05:07:49.768Z,101535.66
2023-01-29T05:13:08.790Z,101529.59
2023-01-29T05:18:21.772Z,101512.50
2023-01-29T05:23:38.297Z,101506.47
2023-01-29T05:28:55.463Z,101498.72
2023-01-29T05:34:09.664Z,101497.13
2023-01-29T05:39:24.321Z,101491.13
2023-01-29T05:44:41.601Z,101494.63
2023-01-29T05:49:53.141Z,101485.16
2023-01-29T05:55:02.449Z,101480.97
2023-01-29T06:00:16.020Z,101487.81
2023-01-29T06:05:25.869Z,101482.72
2023-01-29T06:10:36.435Z,101487.81
2023-01-29T06:15:50.710Z,101486.09
2023-01-29T06:21:04.820Z,101481.81
2023-01-29T06:26:19.097Z,101475.97
2023-01-29T06:31:38.890Z,101482.78
2023-01-29T06:36:54.881Z,101486.16
2023-01-29T06:42:06.637Z,101498.97
2023-01-29T06:47:20.579Z,101501.59
2023-01-29T06:52:30.632Z,101508.47
2023-01-29T06:57:42.666Z,101489.69
2023-01-29T07:02:58.186Z,101470.84
2023-01-29T07:08:11.517Z,101489.66
2023-01-29T07:13:32.596Z,101491.47
2023-01-29T07:18:41.633Z,101507.75
2023-01-29T07:23:50.521Z,101512.94
2023-01-29T07:29:03.355Z,101489.09
2023-01-29T07:34:17.523Z,101493.34
2023-01-29T07:39:32.975Z,101483.09
2023-01-29T07:44:46.142Z,101486.69
2023-01-29T07:50:03.730Z,101482.38
2023-01-29T07:55:18.470Z,101474.78
2023-01-29T08:00:32.659Z,101474.75
2023-01-29T08:05:47.034Z,101465.47
2023-01-29T08:11:02.742Z,101459.53
2023-01-29T08:16:12.772Z,101447.69
2023-01-29T08:21:25.002Z,101443.50
2023-01-29T08:26:39.343Z,101451.22
2023-01-29T08:31:54.545Z,101474.31
2023-01-29T08:37:10.919Z,101476.94
2023-01-29T08:42:24.622Z,101482.00
2023-01-29T08:47:38.885Z,101479.50
2023-01-29T08:52:53.794Z,101475.19
2023-01-29T08:58:09.885Z,101469.25
2023-01-29T09:03:20.402Z,101458.22
2023-01-29T09:08:41.076Z,101450.56
2023-01-29T09:13:56.686Z,101446.41
2023-01-29T09:19:10.985Z,101440.50
2023-01-29T09:24:28.269Z,101429.38
2023-01-29T09:29:41.312Z,101432.81
2023-01-29T09:34:49.045Z,101429.50
2023-01-29T09:40:04.035Z,101431.25
2023-01-29T09:45:25.856Z,101426.22
2023-01-29T09:50:45.785Z,101424.59
2023-01-29T09:56:08.209Z,101421.94
2023-01-29T10:01:40.178Z,101411.66
2023-01-29T10:07:19.995Z,101412.53
2023-01-29T10:13:00.042Z,101405.66
2023-01-29T10:18:56.776Z,101398.81
2023-01-29T10:24:24.116Z,101388.59
2023-01-29T10:29:41.468Z,101380.91
2023-01-29T10:35:00.097Z,101388.56
2023-01-29T10:40:29.068Z,101386.09
2023-01-29T10:45:51.776Z,101381.84
2023-01-29T10:51:13.609Z,101373.41
2023-01-29T10:56:51.183Z,101354.59
2023-01-29T11:02:16.043Z,101352.16
2023-01-29T11:07:29.487Z,101341.91
2023-01-29T11:12:48.515Z,101338.53
2023-01-29T11:18:18.240Z,101329.13
2023-01-29T11:23:33.793Z,101321.47
2023-01-29T11:28:49.504Z,101303.50
2023-01-29T11:34:21.436Z,101302.63
2023-01-29T11:39:36.119Z,101294.16
2023-01-29T11:44:53.251Z,101284.78
2023-01-29T11:50:26.459Z,101271.16
2023-01-29T11:55:51.201Z,101260.03
2023-01-29T12:01:05.215Z,101254.91
2023-01-29T12:06:27.835Z,101248.94
2023-01-29T12:11:41.854Z,101245.59
2023-01-29T12:17:01.424Z,101234.41
2023-01-29T12:22:28.023Z,101228.31
2023-01-29T12:27:55.335Z,101217.25
2023-01-29T12:33:20.891Z,101208.69
2023-01-29T12:38:39.951Z,101207.75
2023-01-29T12:44:00.601Z,101198.44
2023-01-29T12:49:18.483Z,101198.44
2023-01-29T12:54:42.709Z,101207.00
2023-01-29T13:00:03.033Z,101208.88
2023-01-29T13:05:26.894Z,101208.84
2023-01-29T13:10:46.008Z,101207.97
2023-01-29T13:16:01.362Z,101213.16
2023-01-29T13:21:23.785Z,101214.81
2023-01-29T13:26:50.704Z,101191.72
2023-01-29T13:32:07.696Z,101174.56
2023-01-29T13:37:29.895Z,101172.94
2023-01-29T13:42:48.846Z,101175.81
2023-01-29T13:48:26.495Z,101167.06
2023-01-29T13:53:47.446Z,101180.56
2023-01-29T13:59:04.911Z,101196.00
2023-01-29T14:04:33.818Z,101189.16
2023-01-29T14:10:20.941Z,101191.69
2023-01-29T14:15:42.131Z,101183.13
2023-01-29T14:21:04.362Z,101160.94
2023-01-29T14:26:46.017Z,101160.06
2023-01-29T14:32:00.530Z,101148.09
2023-01-29T14:37:29.497Z,101148.94
2023-01-29T14:42:43.842Z,101156.63
2023-01-29T14:48:05.862Z,101159.25
2023-01-29T14:53:30.910Z,101159.28
2023-01-29T14:58:45.694Z,101158.34
2023-01-29T15:03:57.733Z,101154.22
2023-01-29T15:09:15.606Z,101138.75
2023-01-29T15:14:35.069Z,101127.63
2023-01-29T15:19:48.857Z,101121.63
2023-01-29T15:25:16.686Z,101114.78
2023-01-29T15:30:36.251Z,101115.56
2023-01-29T15:35:53.722Z,101107.88
2023-01-29T15:41:20.928Z,101113.06
2023-01-29T15:46:34.985Z,101109.66
2023-01-29T15:51:45.771Z,101111.44
2023-01-29T15:56:58.687Z,101114.00
2023-01-29T16:02:42.794Z,101111.44
2023-01-29T16:07:55.261Z,101120.84
2023-01-29T16:13:05.941Z,101123.44
2023-01-29T16:18:26.675Z,101122.66
2023-01-29T16:23:46.991Z,101126.84
2023-01-29T16:28:56.950Z,101110.59
2023-01-29T16:34:18.609Z,101106.31
2023-01-29T16:39:35.008Z,101099.47
2023-01-29T16:44:48.881Z,101101.25
2023-01-29T16:50:03.099Z,101097.78
2023-01-29T16:55:29.366Z,101086.72
2023-01-29T17:00:40.846Z,101087.56
2023-01-29T17:05:51.847Z,101073.88
2023-01-29T17:11:08.590Z,101076.44
2023-01-29T17:16:30.557Z,101076.44
2023-01-29T17:21:41.883Z,101069.53
2023-01-29T17:26:52.715Z,101052.50
2023-01-29T17:32:02.982Z,101030.34
2023-01-29T17:37:21.083Z,101017.50
2023-01-29T17:42:37.691Z,101012.34
2023-01-29T17:47:48.648Z,101005.53
2023-01-29T17:52:58.291Z,100992.66
2023-01-29T17:58:18.128Z,100971.28
2023-01-29T18:03:28.372Z,100974.63
2023-01-29T18:08:41.339Z,100972.94
2023-01-29T18:13:52.983Z,100966.06
2023-01-29T18:19:02.242Z,100960.94
2023-01-29T18:24:11.034Z,100960.09
2023-01-29T18:29:30.190Z,100966.06
2023-01-29T18:34:39.200Z,100959.22
2023-01-29T18:39:47.903Z,100956.66
2023-01-29T18:45:04.614Z,100952.38
2023-01-29T18:50:16.590Z,100948.09
2023-01-29T18:55:27.472Z,100943.84
2023-01-29T19:00:41.924Z,100946.47
2023-01-29T19:05:56.619Z,100937.06
2023-01-29T19:11:08.886Z,100927.63
2023-01-29T19:16:21.692Z,100929.34
2023-01-29T19:21:36.792Z,100933.63
2023-01-29T19:26:46.957Z,100924.22
2023-01-29T19:31:57.810Z,100927.63
2023-01-29T19:37:07.085Z,100911.41
2023-01-29T19:42:17.621Z,100902.00
2023-01-29T19:47:28.773Z,100901.19
2023-01-29T19:52:52.790Z,100890.91
2023-01-29T19:58:01.265Z,100873.81
2023-01-29T20:03:11.956Z,100863.53
2023-01-29T20:08:21.560Z,100854.19
2023-01-29T20:13:31.550Z,100847.34
2023-01-29T20:18:43.208Z,100847.34
2023-01-29T20:23:54.374Z,100827.66
2023-01-29T20:29:04.552Z,100821.69
2023-01-29T20:34:16.383Z,100805.44
2023-01-29T20:39:27.513Z,100792.56
2023-01-29T20:44:38.809Z,100793.44
2023-01-29T20:49:51.389Z,100782.31
2023-01-29T20:55:01.424Z,100782.31
2023-01-29T21:00:21.015Z,100783.19
2023-01-29T21:05:31.779Z,100772.97
2023-01-29T21:10:42.476Z,100769.53
2023-01-29T21:15:54.913Z,100770.38
2023-01-29T21:21:05.898Z,100768.69
2023-01-29T21:26:15.649Z,100757.56
2023-01-29T21:31:29.337Z,100753.28
2023-01-29T21:36:39.981Z,100748.22
2023-01-29T21:42:06.512Z,100748.16
2023-01-29T21:47:17.998Z,100737.88
2023-01-29T21:52:29.928Z,100725.09
2023-01-29T21:57:36.535Z,100716.53
2023-01-29T22:02:44.749Z,100711.47
2023-01-29T22:07:53.934Z,100699.44
2023-01-29T22:13:02.808Z,100676.31
2023-01-29T22:18:09.416Z,100671.22
2023-01-29T22:23:17.699Z,100660.13
2023-01-29T22:28:24.228Z,100650.69
2023-01-29T22:33:32.021Z,100647.25
2023-01-29T22:38:40.201Z,100631.00
2023-01-29T22:43:47.028Z,100620.75
2023-01-29T22:48:55.560Z,100605.38
2023-01-29T22:54:03.865Z,100591.69
2023-01-29T22:59:11.873Z,100579.72
2023-01-29T23:04:21.917Z,100568.59
2023-01-29T23:09:30.538Z,100559.19
2023-01-29T23:14:37.017Z,100555.75
2023-01-29T23:19:43.647Z,100549.81
2023-01-29T23:24:51.950Z,100548.94
2023-01-29T23:29:59.877Z,100548.09
2023-01-29T23:35:07.799Z,100532.69
2023-01-29T23:40:17.691Z,100526.69
2023-01-29T23:45:25.127Z,100525.00
2023-01-29T23:50:31.920Z,100516.47
2023-01-29T23:55:40.707Z,100510.47
